Time;durP1;ratioP1;P1;durP2;ratioP2;P2;SDS_P1;SDS_P2;PMS_P1;PMS_P2;Temp;Humidity;BMP_temperature;BMP_pressure;BME280_temperature;BME280_humidity;BME280_pressure;Samples;Min_cycle;Max_cycle;Signal;HPM_P1;HPM_P2
2023/09/23 00:00:51;;;;;;;3.35;2.05;;;;;;;19.50;100.00;96863.78;1225645;75;2964775;-79
2023/09/23 00:03:24;;;;;;;3.10;1.70;;;;;;;19.83;100.00;96866.03;1222230;75;3088999;-80
2023/09/23 00:05:57;;;;;;;2.45;1.70;;;;;;;19.90;100.00;96865.25;1222222;75;3033559;-81
2023/09/23 00:08:30;;;;;;;1.90;1.20;;;;;;;19.72;100.00;96859.56;1225266;75;2938343;-78
2023/09/23 00:11:03;;;;;;;3.70;2.00;;;;;;;19.22;100.00;96873.06;1210755;75;4028357;-80
2023/09/23 00:13:35;;;;;;;3.40;2.35;;;;;;;19.39;100.00;96871.78;1213196;75;3863838;-79
2023/09/23 00:16:15;;;;;;;3.10;2.10;;;;;;;19.53;100.00;96870.25;1154488;75;8637828;-81
2023/09/23 00:18:48;;;;;;;1.75;1.60;;;;;;;19.68;100.00;96864.00;1170282;75;7094189;-82
2023/09/23 00:21:21;;;;;;;2.75;1.50;;;;;;;19.80;100.00;96865.09;1197495;75;3921513;-79
2023/09/23 00:23:57;;;;;;;1.80;1.20;;;;;;;19.87;100.00;96861.56;1226373;75;2924331;-82
2023/09/23 00:26:29;;;;;;;2.40;1.50;;;;;;;19.87;100.00;96867.13;1221782;75;3076047;-81
2023/09/23 00:29:03;;;;;;;2.40;1.30;;;;;;;19.93;100.00;96859.31;1211214;75;3879270;-82
2023/09/23 00:31:41;;;;;;;1.65;1.10;;;;;;;19.89;100.00;96869.31;1228189;75;2912883;-81
2023/09/23 00:34:14;;;;;;;2.45;1.50;;;;;;;19.66;100.00;96874.91;1201918;75;5023630;-80
2023/09/23 00:36:47;;;;;;;2.20;1.40;;;;;;;19.76;100.00;96865.47;1227638;75;2923646;-81
2023/09/23 00:39:20;;;;;;;2.90;1.70;;;;;;;19.50;100.00;96860.28;1183745;75;4076339;-79
2023/09/23 00:41:53;;;;;;;3.00;1.90;;;;;;;19.48;100.00;96860.09;1141274;75;9990595;-80
2023/09/23 00:44:26;;;;;;;4.70;2.90;;;;;;;19.16;100.00;96853.06;1200538;75;4848303;-80
2023/09/23 00:47:05;;;;;;;4.47;2.55;;;;;;;19.22;100.00;96845.31;1045509;75;10755731;-78
2023/09/23 00:49:38;;;;;;;5.50;2.60;;;;;;;18.96;100.00;96842.88;1225275;75;2964180;-82
2023/09/23 00:52:11;;;;;;;5.15;2.75;;;;;;;19.01;100.00;96836.41;1224458;75;3041665;-82
2023/09/23 00:54:46;;;;;;;5.20;3.20;;;;;;;19.33;100.00;96841.41;1208675;75;4087645;-82
2023/09/23 00:57:19;;;;;;;3.10;2.35;;;;;;;19.37;100.00;96845.31;1212833;75;3956025;-83
2023/09/23 01:00:04;;;;;;;2.28;1.83;;;;;;;19.36;100.00;96849.38;1190050;75;12087192;-77
2023/09/23 01:02:39;;;;;;;1.95;1.75;;;;;;;19.55;100.00;96864.91;1203468;75;3889135;-80
2023/09/23 01:05:13;;;;;;;2.80;2.10;;;;;;;19.26;100.00;96878.22;1225489;83;2961131;-81
2023/09/23 01:07:48;;;;;;;4.65;1.80;;;;;;;19.39;100.00;96889.16;1220575;75;3052753;-81
2023/09/23 01:10:23;;;;;;;2.25;1.45;;;;;;;19.45;100.00;96892.47;1228728;75;2913333;-81
2023/09/23 01:12:56;;;;;;;3.25;2.20;;;;;;;19.23;100.00;96884.91;1125970;75;9379857;-81
2023/09/23 01:15:31;;;;;;;2.80;1.85;;;;;;;19.66;100.00;96883.97;1118520;75;9857641;-78
2023/09/23 01:18:07;;;;;;;3.25;2.10;;;;;;;19.50;100.00;96888.78;1212814;75;3877906;-81
2023/09/23 01:20:42;;;;;;;1.95;1.50;;;;;;;19.73;100.00;96894.34;1047926;75;9958441;-79
2023/09/23 01:23:19;;;;;;;2.40;1.75;;;;;;;19.44;100.00;96893.06;1168888;75;4879020;-82
2023/09/23 01:25:53;;;;;;;3.20;1.90;;;;;;;19.72;100.00;96884.56;1223157;75;3065425;-81
2023/09/23 01:28:25;;;;;;;1.60;1.35;;;;;;;19.74;100.00;96878.44;1200768;75;4900831;-80
2023/09/23 01:30:59;;;;;;;1.25;1.10;;;;;;;19.76;100.00;96882.13;1142312;75;9928592;-84
2023/09/23 01:33:35;;;;;;;1.20;1.10;;;;;;;19.72;100.00;96887.34;1042267;75;14796107;-77
2023/09/23 01:36:09;;;;;;;1.50;1.10;;;;;;;19.81;100.00;96882.50;1143747;75;8756882;-80
2023/09/23 01:38:44;;;;;;;1.35;1.05;;;;;;;19.85;100.00;96880.09;1228007;75;2910874;-81
2023/09/23 01:41:18;;;;;;;1.20;1.00;;;;;;;19.85;100.00;96891.22;1112877;75;11973482;-79
2023/09/23 01:43:51;;;;;;;1.15;0.90;;;;;;;19.79;100.00;96894.91;1201468;75;3963039;-81
2023/09/23 01:46:24;;;;;;;1.75;1.40;;;;;;;19.54;100.00;96896.75;1226774;75;2926209;-80
2023/09/23 01:48:57;;;;;;;2.60;1.50;;;;;;;19.44;100.00;96891.00;1222279;75;3079433;-82
2023/09/23 01:51:30;;;;;;;1.85;1.25;;;;;;;19.61;100.00;96890.44;1150456;75;8076445;-81
2023/09/23 01:54:07;;;;;;;1.55;1.15;;;;;;;19.76;100.00;96900.84;1223012;75;3069674;-83
2023/09/23 01:56:39;;;;;;;2.25;1.00;;;;;;;19.73;100.00;96918.63;1157319;75;8758077;-81
2023/09/23 01:59:15;;;;;;;1.90;1.10;;;;;;;19.66;100.00;96913.78;1155847;75;8707674;-84
2023/09/23 02:01:48;;;;;;;1.95;1.20;;;;;;;19.76;100.00;96915.44;1174015;75;5031442;-81
2023/09/23 02:04:21;;;;;;;0.75;0.75;;;;;;;19.79;100.00;96899.72;1213284;75;3995862;-81
2023/09/23 02:06:55;;;;;;;1.15;1.05;;;;;;;19.83;100.00;96916.75;1221742;75;3084083;-80
2023/09/23 02:09:30;;;;;;;1.65;1.20;;;;;;;19.46;100.00;96918.97;1200177;75;3987556;-84
2023/09/23 02:12:02;;;;;;;6.20;3.00;;;;;;;19.00;100.00;96921.69;1213387;75;3845462;-82
2023/09/23 02:14:36;;;;;;;4.50;3.05;;;;;;;18.94;100.00;96921.09;1187195;75;4999531;-83
2023/09/23 02:17:08;;;;;;;3.45;2.70;;;;;;;19.14;100.00;96908.38;1225610;75;2925104;-82
2023/09/23 02:19:42;;;;;;;5.55;3.30;;;;;;;18.93;100.00;96914.81;1184148;75;6139759;-82
2023/09/23 02:22:17;;;;;;;7.30;3.40;;;;;;;18.97;100.00;96924.78;1201628;75;4951405;-78
2023/09/23 02:24:54;;;;;;;5.30;3.50;;;;;;;18.82;100.00;96914.41;1186313;75;5054445;-85
2023/09/23 02:27:26;;;;;;;6.60;3.75;;;;;;;18.73;100.00;96908.06;1151627;75;7875800;-83
2023/09/23 02:30:04;;;;;;;6.65;4.20;;;;;;;18.64;100.00;96916.91;1187152;75;5010846;-83
2023/09/23 02:32:38;;;;;;;5.30;4.10;;;;;;;18.72;100.00;96922.47;1224445;75;2938489;-81
2023/09/23 02:35:13;;;;;;;4.45;3.05;;;;;;;19.09;100.00;96910.03;1224571;75;3078428;-81
2023/09/23 02:37:48;;;;;;;2.75;2.45;;;;;;;19.44;100.00;96906.94;1223145;75;3051531;-82
2023/09/23 02:40:27;;;;;;;3.10;2.50;;;;;;;19.49;100.00;96909.53;1194806;75;4071861;-82
2023/09/23 02:43:00;;;;;;;1.65;1.55;;;;;;;19.37;100.00;96927.84;1214178;75;3880732;-81
2023/09/23 02:45:33;;;;;;;5.80;2.80;;;;;;;19.00;100.00;96943.09;1222815;75;3061624;-78
2023/09/23 02:48:06;;;;;;;3.05;2.30;;;;;;;19.15;100.00;96946.66;1215953;75;3831466;-80
2023/09/23 02:50:40;;;;;;;3.65;2.20;;;;;;;19.28;100.00;96933.91;1213550;67;4078672;-81
2023/09/23 02:53:13;;;;;;;3.30;1.75;;;;;;;19.43;100.00;96942.25;1215646;75;3827792;-83
2023/09/23 02:55:52;;;;;;;1.30;1.20;;;;;;;19.59;100.00;96945.78;1220707;75;3129031;-80
2023/09/23 02:58:24;;;;;;;1.90;1.50;;;;;;;19.57;100.00;96935.22;1224987;75;3026374;-84
2023/09/23 03:01:01;;;;;;;2.40;1.40;;;;;;;19.63;100.00;96931.56;1225531;75;2985869;-82
2023/09/23 03:03:34;;;;;;;1.35;1.20;;;;;;;19.64;100.00;96928.22;1226160;75;2938072;-81
2023/09/23 03:06:10;;;;;;;2.25;1.55;;;;;;;19.49;100.00;96931.00;1211950;75;3801814;-81
2023/09/23 03:08:47;;;;;;;1.30;1.20;;;;;;;19.59;100.00;96937.47;1194995;75;4099131;-79
2023/09/23 03:11:26;;;;;;;1.30;1.20;;;;;;;19.59;100.00;96932.66;1173245;75;4877128;-78
2023/09/23 03:13:59;;;;;;;3.50;1.80;;;;;;;19.15;100.00;96940.38;1060012;75;10587035;-80
2023/09/23 03:16:33;;;;;;;2.90;1.80;;;;;;;19.44;100.00;96940.25;1215665;75;3831343;-82
2023/09/23 03:19:15;;;;;;;2.50;1.60;;;;;;;19.47;100.00;96944.69;1200024;75;4028549;-84
2023/09/23 03:21:48;;;;;;;2.55;1.50;;;;;;;19.56;100.00;96946.91;1223283;75;3099593;-83
2023/09/23 03:24:21;;;;;;;1.10;1.00;;;;;;;19.49;100.00;96936.53;1215853;75;3794290;-82
2023/09/23 03:26:59;;;;;;;1.90;1.30;;;;;;;19.46;100.00;96938.41;1226517;75;2936515;-82
2023/09/23 03:29:33;;;;;;;3.30;1.50;;;;;;;19.30;100.00;96937.63;1228484;75;2914990;-83
2023/09/23 03:32:07;;;;;;;5.85;2.90;;;;;;;18.78;100.00;96947.28;1227984;75;2932673;-82
2023/09/23 03:34:39;;;;;;;3.65;2.35;;;;;;;19.07;100.00;96947.94;1216735;75;3783808;-81
2023/09/23 03:37:12;;;;;;;5.80;2.60;;;;;;;18.77;100.00;96954.88;1227210;75;2921159;-81
2023/09/23 03:39:45;;;;;;;6.35;3.05;;;;;;;18.72;100.00;96948.16;1227855;75;2877233;-81
2023/09/23 03:42:20;;;;;;;5.80;2.95;;;;;;;18.89;100.00;96953.25;1227761;75;2922724;-85
2023/09/23 03:44:53;;;;;;;4.30;2.75;;;;;;;18.84;100.00;96951.38;1216093;75;3877465;-81
2023/09/23 03:47:26;;;;;;;4.35;2.75;;;;;;;18.77;100.00;96948.59;1224117;75;2961793;-80
2023/09/23 03:49:59;;;;;;;3.45;2.50;;;;;;;18.99;100.00;96961.06;1213920;75;3875425;-83
2023/09/23 03:52:32;;;;;;;2.60;2.10;;;;;;;19.30;100.00;96965.38;1138259;75;9638637;-81
2023/09/23 03:55:07;;;;;;;3.00;2.00;;;;;;;19.41;100.00;96978.19;1212645;75;3921556;-78
2023/09/23 03:57:44;;;;;;;1.73;1.50;;;;;;;19.41;100.00;96989.28;1175854;75;4944107;-77
2023/09/23 04:00:18;;;;;;;1.65;1.40;;;;;;;19.36;100.00;96988.16;1227263;75;2919750;-85
2023/09/23 04:02:51;;;;;;;2.25;1.40;;;;;;;19.17;100.00;96996.06;1201948;75;4025615;-82
2023/09/23 04:05:25;;;;;;;2.90;2.00;;;;;;;19.22;100.00;96988.84;1214899;75;3811259;-84
2023/09/23 04:07:58;;;;;;;2.70;1.90;;;;;;;19.28;100.00;96979.06;1224183;75;3015421;-81
2023/09/23 04:10:31;;;;;;;4.30;2.70;;;;;;;18.98;100.00;96988.06;1225944;75;3010837;-82
2023/09/23 04:13:07;;;;;;;3.10;2.20;;;;;;;19.42;100.00;96990.75;1227234;75;2936271;-83
2023/09/23 04:15:43;;;;;;;3.25;2.40;;;;;;;19.43;100.00;96992.22;1229098;75;2912264;-83
2023/09/23 04:18:18;;;;;;;2.65;1.80;;;;;;;19.48;100.00;97002.44;1201566;75;4021800;-87
2023/09/23 04:20:53;;;;;;;4.70;3.30;;;;;;;19.06;100.00;96997.13;1133048;75;9613673;-82
2023/09/23 04:23:26;;;;;;;6.55;3.10;;;;;;;18.89;100.00;96997.63;1146029;75;8562001;-81
2023/09/23 04:25:58;;;;;;;4.00;2.75;;;;;;;19.20;100.00;96997.72;1198271;75;4055753;-85
2023/09/23 04:28:34;;;;;;;4.70;2.70;;;;;;;18.93;100.00;97006.34;1224959;75;2994132;-83
2023/09/23 04:31:08;;;;;;;3.15;2.50;;;;;;;18.73;100.00;97012.69;1210270;75;4000705;-81
2023/09/23 04:33:41;;;;;;;7.80;3.10;;;;;;;18.41;100.00;97005.50;1211518;75;4031527;-82
2023/09/23 04:36:14;;;;;;;5.45;2.70;;;;;;;18.31;100.00;97015.59;1172866;75;5102729;-83
2023/09/23 04:38:46;;;;;;;8.00;3.15;;;;;;;17.94;100.00;97016.78;1221700;75;3076672;-79
2023/09/23 04:41:19;;;;;;;4.30;2.25;;;;;;;18.06;100.00;97038.13;1201322;75;4815246;-80
2023/09/23 04:43:54;;;;;;;3.05;2.20;;;;;;;18.31;100.00;97023.91;1225291;75;2928233;-81
2023/09/23 04:46:33;;;;;;;3.30;1.90;;;;;;;18.40;100.00;97017.88;1222868;75;3010172;-83
2023/09/23 04:49:06;;;;;;;2.85;1.55;;;;;;;18.44;100.00;97032.09;1223889;75;3018010;-76
2023/09/23 04:51:38;;;;;;;1.85;1.45;;;;;;;18.34;100.00;97049.78;1104590;75;10712076;-82
2023/09/23 04:54:11;;;;;;;5.50;2.85;;;;;;;17.59;100.00;97063.88;1222274;75;3081236;-81
2023/09/23 04:56:44;;;;;;;3.30;2.40;;;;;;;17.78;100.00;97074.03;1184987;75;4053085;-79
2023/09/23 04:59:19;;;;;;;7.25;2.25;;;;;;;17.72;100.00;97085.22;1223585;75;2921929;-79
2023/09/23 05:01:52;;;;;;;4.85;1.70;;;;;;;17.22;100.00;97103.66;1223595;75;2939425;-79
2023/09/23 05:04:24;;;;;;;2.90;1.70;;;;;;;17.34;100.00;97115.25;1144709;75;9529443;-76
2023/09/23 05:06:57;;;;;;;4.45;1.90;;;;;;;16.68;100.00;97102.19;1209303;75;3998637;-77
2023/09/23 05:09:30;;;;;;;3.15;1.45;;;;;;;16.96;100.00;97121.78;1225226;75;2936749;-78
2023/09/23 05:12:03;;;;;;;3.95;1.50;;;;;;;16.70;100.00;97121.75;1225328;75;2928837;-76
2023/09/23 05:14:39;;;;;;;2.55;1.10;;;;;;;16.97;100.00;97128.78;1198313;75;4814632;-76
2023/09/23 05:21:13;;;;;;;1.00;0.40;;;;;;;16.58;100.00;97121.22;1222720;75;2938762;-77
2023/09/23 05:23:48;;;;;;;0.70;0.30;;;;;;;16.38;100.00;97131.59;1223047;83;2928528;-77
2023/09/23 05:26:22;;;;;;;;;;;;;;;16.35;100.00;97146.44;1204386;75;3953030;-79
2023/09/23 05:28:56;;;;;;;1.05;0.60;;;;;;;16.07;100.00;97152.44;1208967;75;3870312;-77
2023/09/23 05:31:31;;;;;;;2.40;0.60;;;;;;;16.28;100.00;97157.38;1221125;75;3023663;-79
2023/09/23 05:34:04;;;;;;;0.65;0.40;;;;;;;16.32;100.00;97157.81;1219247;75;3077638;-77
2023/09/23 05:36:37;;;;;;;2.70;0.30;;;;;;;16.23;100.00;97164.47;1198735;75;5001373;-77
2023/09/23 05:39:18;;;;;;;0.50;0.20;;;;;;;16.64;100.00;97162.56;1192419;75;5039954;-77
2023/09/23 05:41:52;;;;;;;0.60;0.50;;;;;;;16.01;100.00;97162.06;1140202;75;9933200;-78
2023/09/23 05:44:24;;;;;;;0.40;0.40;;;;;;;16.06;100.00;97164.72;1222665;75;2956928;-77
2023/09/23 05:47:00;;;;;;;1.55;0.60;;;;;;;16.14;100.00;97178.69;1209446;75;3910244;-76
2023/09/23 05:49:33;;;;;;;1.25;0.60;;;;;;;16.06;100.00;97178.53;1210457;75;3970840;-78
2023/09/23 05:52:06;;;;;;;0.45;0.35;;;;;;;16.02;100.00;97167.06;1199557;75;4937304;-77
2023/09/23 05:54:39;;;;;;;0.40;0.30;;;;;;;16.31;100.00;97173.66;1196858;75;4946777;-79
2023/09/23 05:57:12;;;;;;;1.20;1.00;;;;;;;16.25;100.00;97186.03;1212883;75;3833006;-78
2023/09/23 05:59:45;;;;;;;3.60;2.20;;;;;;;16.25;100.00;97191.56;1196855;75;5041614;-79
2023/09/23 06:02:21;;;;;;;2.40;1.80;;;;;;;16.26;100.00;97193.03;1123602;75;10165640;-76
2023/09/23 06:04:54;;;;;;;2.30;1.20;;;;;;;16.08;100.00;97198.09;1207434;75;4109117;-77
2023/09/23 06:07:31;;;;;;;3.17;2.30;;;;;;;16.15;100.00;97199.50;1198834;75;8684559;-75
2023/09/23 06:10:04;;;;;;;1.30;1.20;;;;;;;16.12;100.00;97215.09;1198488;75;4955616;-79
2023/09/23 06:12:37;;;;;;;2.00;1.60;;;;;;;16.19;100.00;97213.75;1155279;75;5004720;-77
2023/09/23 06:15:11;;;;;;;3.50;2.60;;;;;;;16.16;100.00;97221.06;1172344;75;5867454;-76
2023/09/23 06:17:46;;;;;;;3.15;2.25;;;;;;;16.20;100.00;97223.53;1223934;75;2935869;-78
2023/09/23 06:20:19;;;;;;;2.70;1.60;;;;;;;16.25;100.00;97230.22;1140773;75;5672661;-80
2023/09/23 06:22:52;;;;;;;3.65;2.35;;;;;;;16.22;100.00;97234.78;1207647;75;3992606;-77
2023/09/23 06:25:24;;;;;;;3.20;2.10;;;;;;;16.36;100.00;97243.88;1224803;75;2943416;-80
2023/09/23 06:27:57;;;;;;;4.00;2.50;;;;;;;16.23;100.00;97244.56;1223991;75;2925627;-78
2023/09/23 06:30:31;;;;;;;3.40;2.50;;;;;;;16.37;100.00;97248.88;1218591;75;3060912;-78
2023/09/23 06:33:07;;;;;;;2.15;1.50;;;;;;;16.22;100.00;97243.09;1208873;75;3854706;-79
2023/09/23 06:35:40;;;;;;;1.90;1.30;;;;;;;16.36;100.00;97249.41;1212747;75;3857976;-76
2023/09/23 06:38:12;;;;;;;1.55;0.95;;;;;;;16.31;100.00;97253.00;1223644;75;2924620;-78
2023/09/23 06:40:45;;;;;;;1.80;1.15;;;;;;;16.42;100.00;97268.66;1206591;75;4020188;-79
2023/09/23 06:43:18;;;;;;;1.65;1.25;;;;;;;16.59;100.00;97275.41;1222860;75;2950209;-78
2023/09/23 06:45:57;;;;;;;1.90;1.30;;;;;;;16.52;100.00;97289.09;1197481;75;3971378;-76
2023/09/23 06:48:33;;;;;;;1.10;0.90;;;;;;;16.59;100.00;97299.53;1224599;75;2919617;-77
2023/09/23 06:51:07;;;;;;;1.30;0.90;;;;;;;16.61;100.00;97306.03;1219828;75;3045606;-75
2023/09/23 06:53:40;;;;;;;3.20;2.50;;;;;;;16.45;100.00;97298.00;1196891;75;4907289;-77
2023/09/23 06:56:13;;;;;;;3.25;1.50;;;;;;;15.95;100.00;97300.91;1138375;75;9841369;-71
2023/09/23 06:58:46;;;;;;;6.75;5.00;;;;;;;16.49;100.00;97304.72;1222819;75;2924543;-69
2023/09/23 07:01:18;;;;;;;4.15;3.05;;;;;;;16.70;100.00;97301.41;1224029;75;2921214;-69
2023/09/23 07:03:54;;;;;;;3.00;2.45;;;;;;;16.74;100.00;97313.66;1224289;75;2921766;-70
2023/09/23 07:06:26;;;;;;;1.35;1.20;;;;;;;16.68;100.00;97304.69;1222286;75;2921425;-69
2023/09/23 07:08:59;;;;;;;2.05;1.35;;;;;;;16.83;100.00;97301.47;1224232;75;2921889;-71
2023/09/23 07:11:32;;;;;;;0.70;0.70;;;;;;;16.80;100.00;97311.56;1224141;75;2926177;-68
2023/09/23 07:14:05;;;;;;;0.70;0.70;;;;;;;16.82;100.00;97320.09;1223403;75;2922531;-71
2023/09/23 07:16:38;;;;;;;0.80;0.40;;;;;;;16.63;100.00;97315.84;1184576;75;5713404;-68
2023/09/23 07:19:14;;;;;;;0.45;0.45;;;;;;;16.81;100.00;97326.91;1223376;75;2918091;-73
2023/09/23 07:21:47;;;;;;;0.20;0.20;;;;;;;16.78;100.00;97327.94;1221681;75;2926533;-69
2023/09/23 07:24:19;;;;;;;0.30;0.30;;;;;;;16.84;100.00;97336.16;1222943;75;2930858;-70
2023/09/23 07:26:52;;;;;;;0.85;0.30;;;;;;;16.52;100.00;97344.38;1220827;75;3057920;-72
2023/09/23 07:29:25;;;;;;;2.60;0.50;;;;;;;16.43;100.00;97353.78;1224345;75;2920124;-72
2023/09/23 07:31:59;;;;;;;0.65;0.40;;;;;;;16.47;100.00;97348.69;1223431;75;2934735;-74
2023/09/23 07:34:34;;;;;;;0.80;0.40;;;;;;;16.47;100.00;97350.72;1223721;75;2918864;-72
2023/09/23 07:37:08;;;;;;;2.70;0.60;;;;;;;16.60;100.00;97346.00;1223504;75;2921052;-74
2023/09/23 07:39:42;;;;;;;1.10;0.50;;;;;;;16.66;100.00;97350.72;1223786;75;2915543;-70
2023/09/23 07:42:15;;;;;;;1.25;0.70;;;;;;;16.68;100.00;97348.16;1224028;75;2921221;-77
2023/09/23 07:44:47;;;;;;;0.60;0.50;;;;;;;16.72;100.00;97362.44;1223798;75;2923646;-71
2023/09/23 07:47:20;;;;;;;1.00;0.50;;;;;;;16.81;100.00;97357.31;1224403;75;2920843;-71
2023/09/23 07:49:55;;;;;;;0.85;0.50;;;;;;;16.87;100.00;97362.00;1224685;75;2919369;-76
2023/09/23 07:52:28;;;;;;;0.55;0.40;;;;;;;16.70;100.00;97362.97;1224411;75;2932800;-73
2023/09/23 07:55:00;;;;;;;0.65;0.50;;;;;;;16.77;100.00;97378.94;1224364;75;2921383;-74
2023/09/23 07:57:33;;;;;;;0.70;0.40;;;;;;;16.69;100.00;97377.28;1225033;75;2917652;-73
2023/09/23 08:00:08;;;;;;;1.40;0.50;;;;;;;16.72;100.00;97379.03;1222895;75;2919795;-70
2023/09/23 08:02:40;;;;;;;0.50;0.40;;;;;;;16.85;100.00;97392.94;1224305;75;2914094;-70
2023/09/23 08:05:16;;;;;;;1.65;1.25;;;;;;;16.75;100.00;97397.31;1224199;75;2914933;-70
2023/09/23 08:07:48;;;;;;;5.10;3.55;;;;;;;16.39;100.00;97408.59;1225261;75;2912309;-72
2023/09/23 08:10:21;;;;;;;3.20;1.65;;;;;;;15.93;100.00;97418.66;1224386;75;2924353;-73
2023/09/23 08:12:54;;;;;;;1.90;1.05;;;;;;;15.83;100.00;97412.72;1223580;75;2925356;-72
2023/09/23 08:15:26;;;;;;;2.35;1.40;;;;;;;16.27;100.00;97413.50;1222814;75;2925370;-74
2023/09/23 08:17:59;;;;;;;3.90;2.70;;;;;;;16.34;100.00;97412.19;1223417;75;2923874;-70
2023/09/23 08:20:35;;;;;;;2.35;1.90;;;;;;;16.31;100.00;97421.50;1222437;75;2937242;-74
2023/09/23 08:23:08;;;;;;;1.80;1.30;;;;;;;16.34;100.00;97429.50;1223184;75;2928826;-73
2023/09/23 08:25:40;;;;;;;1.85;1.00;;;;;;;16.14;100.00;97435.50;1223032;75;2919488;-71
2023/09/23 08:28:13;;;;;;;1.30;0.80;;;;;;;16.00;100.00;97433.91;1188325;75;5738443;-74
2023/09/23 08:30:47;;;;;;;2.05;0.95;;;;;;;15.88;100.00;97438.78;1223283;75;2924419;-71
2023/09/23 08:33:20;;;;;;;2.10;1.00;;;;;;;15.97;100.00;97441.22;1224440;75;2919370;-72
2023/09/23 08:35:55;;;;;;;2.30;1.00;;;;;;;15.81;100.00;97450.41;1224694;75;2912079;-74
2023/09/23 08:38:28;;;;;;;5.75;1.50;;;;;;;15.89;100.00;97446.53;1225178;75;2899834;-71
2023/09/23 08:41:07;;;;;;;2.90;1.40;;;;;;;15.92;100.00;97461.31;1223948;75;2922748;-71
2023/09/23 08:43:40;;;;;;;2.80;1.30;;;;;;;15.88;100.00;97456.09;1224815;75;2918598;-71
2023/09/23 08:46:14;;;;;;;3.25;1.15;;;;;;;15.70;100.00;97456.75;1224070;75;2914846;-70
2023/09/23 08:48:48;;;;;;;1.85;0.95;;;;;;;15.84;100.00;97460.41;1224155;75;2926704;-72
2023/09/23 08:51:25;;;;;;;1.95;0.90;;;;;;;15.84;100.00;97465.94;1223923;75;2922417;-72
2023/09/23 08:53:58;;;;;;;1.75;0.95;;;;;;;15.73;100.00;97469.53;1223894;75;2954936;-70
2023/09/23 08:56:32;;;;;;;1.50;0.80;;;;;;;15.75;100.00;97478.03;1224637;75;2914676;-71
2023/09/23 08:59:05;;;;;;;2.55;1.40;;;;;;;15.61;100.00;97477.13;1224470;75;2925593;-69
2023/09/23 09:01:45;;;;;;;2.00;1.00;;;;;;;15.63;100.00;97480.09;1223975;75;2917414;-71
2023/09/23 09:04:18;;;;;;;1.35;1.00;;;;;;;15.74;100.00;97479.31;1224077;75;2921072;-71
2023/09/23 09:06:57;;;;;;;3.35;1.20;;;;;;;15.60;100.00;97489.41;1224225;75;2918431;-73
2023/09/23 09:09:29;;;;;;;2.85;1.30;;;;;;;15.67;100.00;97488.88;1224849;75;2917961;-73
2023/09/23 09:12:02;;;;;;;2.55;1.20;;;;;;;15.82;100.00;97499.56;1224578;75;2923983;-71
2023/09/23 09:14:36;;;;;;;2.65;1.15;;;;;;;15.72;100.00;97514.94;1223022;75;2930111;-75
2023/09/23 09:17:12;;;;;;;1.30;0.80;;;;;;;15.88;100.00;97519.59;1224890;75;2931067;-73
2023/09/23 09:19:44;;;;;;;2.40;1.10;;;;;;;15.85;100.00;97517.88;1224870;75;2920149;-75
2023/09/23 09:22:21;;;;;;;1.70;1.10;;;;;;;15.69;100.00;97527.00;1224456;75;2920564;-73
2023/09/23 09:24:54;;;;;;;1.85;0.90;;;;;;;15.63;100.00;97527.03;1224913;75;2928100;-74
2023/09/23 09:27:27;;;;;;;2.15;0.85;;;;;;;15.77;100.00;97525.94;1224611;75;2920718;-72
2023/09/23 09:29:59;;;;;;;2.10;1.20;;;;;;;15.50;100.00;97532.41;1225240;75;2932678;-73
2023/09/23 09:32:33;;;;;;;2.15;1.20;;;;;;;15.80;100.00;97535.19;1224291;75;2917625;-78
2023/09/23 09:35:14;;;;;;;2.70;1.10;;;;;;;15.74;100.00;97546.28;1224372;75;2928396;-70
2023/09/23 09:37:51;;;;;;;3.00;1.60;;;;;;;15.82;100.00;97540.97;1224168;75;2918905;-74
2023/09/23 09:40:24;;;;;;;2.70;1.10;;;;;;;15.67;100.00;97537.78;1224655;75;2925583;-73
2023/09/23 09:43:02;;;;;;;15.85;11.55;;;;;;;15.52;100.00;97541.66;1224240;75;2920531;-73
2023/09/23 09:45:40;;;;;;;8.20;5.80;;;;;;;15.28;100.00;97531.28;1224879;75;2919332;-70
2023/09/23 09:48:13;;;;;;;2.50;1.30;;;;;;;15.44;100.00;97524.16;1224157;75;2979991;-69
2023/09/23 09:50:48;;;;;;;1.45;0.95;;;;;;;15.63;100.00;97524.25;1224778;75;2922593;-73
2023/09/23 09:53:25;;;;;;;6.15;4.30;;;;;;;16.14;100.00;97521.88;1223591;75;2921060;-72
2023/09/23 09:55:58;;;;;;;4.35;3.10;;;;;;;16.31;100.00;97518.94;1224558;75;2926036;-77
2023/09/23 09:58:39;;;;;;;2.35;1.50;;;;;;;15.88;100.00;97538.16;1224559;75;2923597;-71
2023/09/23 10:01:14;;;;;;;1.95;1.20;;;;;;;15.69;100.00;97538.03;1223871;75;2926619;-74
2023/09/23 10:03:49;;;;;;;2.25;0.80;;;;;;;16.00;100.00;97552.63;1225152;75;2918879;-73
2023/09/23 10:06:26;;;;;;;1.70;0.90;;;;;;;15.87;100.00;97553.97;1224467;75;2920057;-70
2023/09/23 10:09:04;;;;;;;1.50;1.05;;;;;;;15.64;100.00;97550.59;1224700;75;2921238;-74
2023/09/23 10:11:39;;;;;;;1.00;0.70;;;;;;;16.01;100.00;97546.56;1224158;75;2926212;-70
2023/09/23 10:14:20;;;;;;;1.10;0.60;;;;;;;15.73;100.00;97538.53;1223759;75;2920717;-72
2023/09/23 10:16:53;;;;;;;1.85;1.00;;;;;;;15.53;100.00;97540.38;1225258;75;2923130;-74
2023/09/23 10:19:36;;;;;;;2.00;1.10;;;;;;;15.63;100.00;97535.28;1224200;75;2930603;-68
2023/09/23 10:22:18;;;;;;;0.85;0.80;;;;;;;15.70;100.00;97528.50;1225205;75;2932379;-71
2023/09/23 10:25:04;;;;;;;1.95;1.10;;;;;;;15.48;100.00;97530.13;1225030;75;2918841;-69
2023/09/23 10:27:37;;;;;;;1.75;1.10;;;;;;;15.63;100.00;97529.03;1224604;75;2916504;-71
2023/09/23 10:30:11;;;;;;;1.90;0.95;;;;;;;15.53;100.00;97532.09;1225110;75;2927260;-73
2023/09/23 10:32:47;;;;;;;2.35;1.10;;;;;;;15.76;100.00;97529.22;1224906;75;2918379;-73
2023/09/23 10:35:26;;;;;;;1.30;1.10;;;;;;;15.66;100.00;97534.28;1225332;75;2922104;-69
2023/09/23 10:37:58;;;;;;;1.90;1.15;;;;;;;15.51;100.00;97528.38;1225254;75;2923120;-74
2023/09/23 10:40:34;;;;;;;3.30;1.10;;;;;;;15.83;100.00;97542.47;1224334;75;2921647;-74
2023/09/23 10:43:09;;;;;;;1.25;0.90;;;;;;;15.70;100.00;97553.34;1222271;75;2924999;-72
2023/09/23 10:45:41;;;;;;;2.50;0.95;;;;;;;15.68;100.00;97550.31;1223839;75;2919700;-71
2023/09/23 10:48:15;;;;;;;1.45;1.00;;;;;;;15.90;100.00;97546.69;1223506;75;2926253;-69
2023/09/23 10:50:49;;;;;;;1.80;1.05;;;;;;;15.97;100.00;97540.59;1223286;75;2929646;-73
2023/09/23 10:53:23;;;;;;;3.40;1.30;;;;;;;15.77;100.00;97547.28;1223234;75;2919085;-72
2023/09/23 10:55:58;;;;;;;5.30;4.40;;;;;;;15.70;100.00;97537.53;1222641;75;2925195;-69
2023/09/23 10:58:32;;;;;;;2.95;1.85;;;;;;;16.16;100.00;97535.13;1223567;75;2927976;-71
2023/09/23 11:01:05;;;;;;;2.05;1.25;;;;;;;16.12;100.00;97538.19;1224273;75;2919717;-71
2023/09/23 11:03:42;;;;;;;2.70;1.20;;;;;;;15.83;100.00;97542.47;1224379;75;2928707;-73
2023/09/23 11:06:16;;;;;;;2.90;1.35;;;;;;;16.08;100.00;97543.25;1224133;75;2926688;-69
2023/09/23 11:08:49;;;;;;;2.35;1.60;;;;;;;16.12;100.00;97543.72;1224099;67;2917502;-74
2023/09/23 11:11:25;;;;;;;3.15;1.30;;;;;;;16.26;100.00;97541.06;1223565;75;2928038;-76
2023/09/23 11:13:58;;;;;;;1.65;0.95;;;;;;;16.24;100.00;97536.09;1224398;75;2922603;-72
2023/09/23 11:16:31;;;;;;;2.05;1.20;;;;;;;16.35;100.00;97535.22;1223319;75;2922770;-72
2023/09/23 11:19:10;;;;;;;4.05;1.80;;;;;;;16.14;100.00;97532.16;1222781;75;2935306;-70
2023/09/23 11:21:47;;;;;;;2.20;0.90;;;;;;;15.89;100.00;97531.38;1221927;75;2926742;-74
2023/09/23 11:24:21;;;;;;;2.00;0.70;;;;;;;16.25;100.00;97539.59;1224367;75;2954108;-72
2023/09/23 11:26:56;;;;;;;3.10;2.10;;;;;;;16.26;100.00;97536.31;1222007;75;2940746;-73
2023/09/23 11:29:29;;;;;;;11.10;7.35;;;;;;;16.23;100.00;97531.81;1224570;75;2923906;-73
2023/09/23 11:32:01;;;;;;;2.00;1.50;;;;;;;16.18;100.00;97538.13;1220858;75;2977250;-77
2023/09/23 11:34:35;;;;;;;2.15;1.35;;;;;;;16.22;100.00;97537.88;1223568;75;2924933;-70
2023/09/23 11:37:08;;;;;;;2.40;1.00;;;;;;;16.05;100.00;97536.00;1223783;75;2925605;-73
2023/09/23 11:39:41;;;;;;;2.50;1.20;;;;;;;16.00;100.00;97545.09;1223058;75;2931870;-70
2023/09/23 11:42:16;;;;;;;2.00;1.00;;;;;;;16.17;100.00;97550.47;1223469;75;2928336;-75
2023/09/23 11:44:49;;;;;;;2.30;1.25;;;;;;;16.42;100.00;97551.22;1223953;75;2932959;-75